createdAt,value
2019-03-28T00:01:38.851Z,99.80
2019-03-28T00:04:09.089Z,99.90
2019-03-28T00:06:39.627Z,99.90
2019-03-28T00:09:10.081Z,99.80
2019-03-28T00:11:40.599Z,99.90
2019-03-28T00:14:10.823Z,99.90
2019-03-28T00:16:41.099Z,99.90
2019-03-28T00:19:11.254Z,99.90
2019-03-28T00:21:41.429Z,99.90
2019-03-28T00:24:29.841Z,99.90
2019-03-28T00:27:00.101Z,99.90
2019-03-28T00:29:30.299Z,99.90
2019-03-28T00:32:00.651Z,99.90
2019-03-28T00:34:31.086Z,99.90
2019-03-28T00:37:01.988Z,99.90
2019-03-28T00:39:32.658Z,99.90
2019-03-28T00:42:03.363Z,99.90
2019-03-28T00:44:33.847Z,99.90
2019-03-28T00:47:04.074Z,99.90
2019-03-28T00:49:34.247Z,99.90
2019-03-28T00:52:05.514Z,99.90
2019-03-28T00:54:35.674Z,99.90
2019-03-28T00:57:05.924Z,99.90
2019-03-28T00:59:36.427Z,99.90
2019-03-28T01:02:06.594Z,99.90
2019-03-28T01:04:37.119Z,99.90
2019-03-28T01:07:07.380Z,99.90
2019-03-28T01:09:37.686Z,99.90
2019-03-28T01:12:08.300Z,99.90
2019-03-28T01:14:39.054Z,99.90
2019-03-28T01:17:10.512Z,99.90
2019-03-28T01:19:40.666Z,99.90
2019-03-28T01:22:10.859Z,99.90
2019-03-28T01:24:41.092Z,99.90
2019-03-28T01:27:11.258Z,99.90
2019-03-28T01:29:41.427Z,99.90
2019-03-28T01:32:11.589Z,99.90
2019-03-28T01:34:42.007Z,99.80
2019-03-28T01:37:12.256Z,99.90
2019-03-28T01:39:43.638Z,99.90
2019-03-28T01:42:13.818Z,99.90
2019-03-28T01:44:44.329Z,99.80
2019-03-28T01:47:14.570Z,99.70
2019-03-28T01:49:44.820Z,99.70
2019-03-28T01:52:15.923Z,99.90
2019-03-28T01:54:46.340Z,99.90
2019-03-28T01:57:16.507Z,99.90
2019-03-28T01:59:46.704Z,99.90
2019-03-28T02:02:17.115Z,99.70
2019-03-28T02:04:47.565Z,99.70
2019-03-28T02:07:17.798Z,99.80
2019-03-28T02:09:47.966Z,99.90
2019-03-28T02:12:18.144Z,99.90
2019-03-28T02:14:48.439Z,99.90
2019-03-28T02:17:18.846Z,99.90
2019-03-28T02:19:49.522Z,99.90
2019-03-28T02:22:19.698Z,99.90
2019-03-28T02:24:50.127Z,99.90
2019-03-28T02:27:24.380Z,99.90
2019-03-28T02:29:52.184Z,99.90
2019-03-28T02:32:22.579Z,99.90
2019-03-28T02:34:52.827Z,99.90
2019-03-28T02:37:23.433Z,99.90
2019-03-28T02:39:53.971Z,99.90
2019-03-28T02:42:24.390Z,99.90
2019-03-28T02:44:54.583Z,99.90
2019-03-28T02:47:25.009Z,99.90
2019-03-28T02:49:55.578Z,99.90
2019-03-28T02:52:25.754Z,99.90
2019-03-28T02:54:56.012Z,99.90
2019-03-28T02:57:40.213Z,99.90
2019-03-28T02:59:58.375Z,99.90
2019-03-28T03:02:28.611Z,99.90
2019-03-28T03:04:58.791Z,99.90
2019-03-28T03:07:30.128Z,99.90
2019-03-28T03:10:00.550Z,99.90
2019-03-28T03:12:31.047Z,99.90
2019-03-28T03:15:01.253Z,99.90
2019-03-28T03:17:31.476Z,99.90
2019-03-28T03:20:01.686Z,99.90
2019-03-28T03:22:32.064Z,99.90
2019-03-28T03:25:02.308Z,99.90
2019-03-28T03:27:32.476Z,99.90
2019-03-28T03:30:03.696Z,99.90
2019-03-28T03:32:34.089Z,99.90
2019-03-28T03:35:04.926Z,99.90
2019-03-28T03:37:35.150Z,99.90
2019-03-28T03:40:06.690Z,99.90
2019-03-28T03:42:36.970Z,99.90
2019-03-28T03:45:09.328Z,99.90
2019-03-28T03:47:39.945Z,99.90
2019-03-28T03:50:11.977Z,99.90
2019-03-28T03:52:42.157Z,99.90
2019-03-28T03:55:12.318Z,99.90
2019-03-28T03:57:42.513Z,99.90
2019-03-28T04:00:15.403Z,99.90
2019-03-28T04:02:45.570Z,99.90
2019-03-28T04:05:16.383Z,99.90
2019-03-28T04:07:46.800Z,99.90
2019-03-28T04:10:17.442Z,99.90
2019-03-28T04:12:47.888Z,99.90
2019-03-28T04:15:18.094Z,99.90
2019-03-28T04:17:48.333Z,99.90
2019-03-28T04:20:18.743Z,99.90
2019-03-28T04:22:48.940Z,99.90
2019-03-28T04:25:19.119Z,99.90
2019-03-28T04:27:49.295Z,99.90
2019-03-28T04:30:19.536Z,99.90
2019-03-28T04:32:49.720Z,99.90
2019-03-28T04:35:19.891Z,99.90
2019-03-28T04:37:50.071Z,99.90
2019-03-28T04:40:20.245Z,99.90
2019-03-28T04:42:50.477Z,99.90
2019-03-28T04:45:20.795Z,99.90
2019-03-28T04:47:51.028Z,99.90
2019-03-28T04:50:21.314Z,99.90
2019-03-28T04:52:52.989Z,99.90
2019-03-28T04:55:23.648Z,99.90
2019-03-28T04:57:53.822Z,99.90
2019-03-28T05:00:24.141Z,99.90
2019-03-28T05:02:54.611Z,99.90
2019-03-28T05:05:24.864Z,99.90
2019-03-28T05:07:55.031Z,99.90
2019-03-28T05:10:26.448Z,99.90
2019-03-28T05:12:57.367Z,99.90
2019-03-28T05:15:28.483Z,99.90
2019-03-28T05:17:58.655Z,99.90
2019-03-28T05:20:28.818Z,99.90
2019-03-28T05:22:59.254Z,99.90
2019-03-28T05:25:29.409Z,99.90
2019-03-28T05:27:59.580Z,99.90
2019-03-28T05:30:29.745Z,99.90
2019-03-28T05:32:59.942Z,99.90
2019-03-28T05:35:30.192Z,99.90
2019-03-28T05:38:00.371Z,99.90
2019-03-28T05:40:30.539Z,99.90
2019-03-28T05:43:00.714Z,99.90
2019-03-28T05:45:30.878Z,99.90
2019-03-28T05:48:01.131Z,99.90
2019-03-28T05:50:31.291Z,99.90
2019-03-28T05:53:01.742Z,99.90
2019-03-28T05:55:31.913Z,99.90
2019-03-28T05:58:02.175Z,99.90
2019-03-28T06:00:32.623Z,99.90
2019-03-28T06:03:03.766Z,99.90
2019-03-28T06:05:34.059Z,99.90
2019-03-28T06:08:04.324Z,99.90
2019-03-28T06:10:34.563Z,99.90
2019-03-28T06:13:05.030Z,99.90
2019-03-28T06:15:35.458Z,99.90
2019-03-28T06:18:05.710Z,99.90
2019-03-28T06:20:35.886Z,99.90
2019-03-28T06:23:06.056Z,99.90
2019-03-28T06:25:39.432Z,99.90
2019-03-28T06:28:08.428Z,99.90
2019-03-28T06:30:38.934Z,99.90
2019-03-28T06:33:09.098Z,99.90
2019-03-28T06:35:39.354Z,99.90
2019-03-28T06:38:09.859Z,99.90
2019-03-28T06:40:40.037Z,99.90
2019-03-28T06:43:10.261Z,99.90
2019-03-28T06:45:40.431Z,99.90
2019-03-28T06:48:10.627Z,99.90
2019-03-28T06:50:40.858Z,99.90
2019-03-28T06:53:11.018Z,99.90
2019-03-28T06:55:41.527Z,99.90
2019-03-28T06:58:11.711Z,99.90
2019-03-28T07:00:41.882Z,99.90
2019-03-28T07:03:12.915Z,99.90
2019-03-28T07:05:43.255Z,99.90
2019-03-28T07:08:13.733Z,99.90
2019-03-28T07:10:44.171Z,99.90
2019-03-28T07:13:15.765Z,99.90
2019-03-28T07:15:45.935Z,99.80
2019-03-28T07:18:16.094Z,99.90
2019-03-28T07:20:46.410Z,99.80
2019-03-28T07:23:16.612Z,99.90
2019-03-28T07:25:46.958Z,99.90
2019-03-28T07:28:17.479Z,99.70
2019-03-28T07:30:47.949Z,99.50
2019-03-28T07:33:18.114Z,99.80
2019-03-28T07:35:48.284Z,99.90
2019-03-28T07:38:18.459Z,99.90
2019-03-28T07:40:48.698Z,99.90
2019-03-28T07:43:18.940Z,99.90
2019-03-28T07:45:49.467Z,99.90
2019-03-28T07:48:20.408Z,99.90
2019-03-28T07:50:50.653Z,99.90
2019-03-28T07:53:21.554Z,99.90
2019-03-28T07:55:52.221Z,99.90
2019-03-28T07:58:22.722Z,99.90
2019-03-28T08:00:52.951Z,99.90
2019-03-28T08:03:23.207Z,99.90
2019-03-28T08:05:53.411Z,99.90
2019-03-28T08:08:38.025Z,99.90
2019-03-28T08:10:56.872Z,99.90
2019-03-28T08:13:27.111Z,99.90
2019-03-28T08:15:57.550Z,99.90
2019-03-28T08:18:28.049Z,99.90
2019-03-28T08:20:58.612Z,99.90
2019-03-28T08:23:29.658Z,99.90
2019-03-28T08:25:59.934Z,99.90
2019-03-28T08:28:30.418Z,99.90
2019-03-28T08:31:00.911Z,99.80
2019-03-28T08:33:31.935Z,99.70
2019-03-28T08:36:03.958Z,99.90
2019-03-28T08:38:36.515Z,99.80
2019-03-28T08:41:07.289Z,99.40
2019-03-28T08:43:37.798Z,99.40
2019-03-28T08:46:08.856Z,99.40
2019-03-28T08:48:39.578Z,99.50
2019-03-28T08:51:09.986Z,99.10
2019-03-28T08:53:40.444Z,99.30
2019-03-28T08:56:10.615Z,99.60
2019-03-28T08:58:40.789Z,98.50
2019-03-28T09:01:11.094Z,98.00
2019-03-28T09:03:41.266Z,98.70
2019-03-28T09:06:11.458Z,98.50
2019-03-28T09:08:41.726Z,97.80
2019-03-28T09:11:12.031Z,98.00
2019-03-28T09:13:42.212Z,97.80
2019-03-28T09:16:12.388Z,98.20
2019-03-28T09:18:42.584Z,97.90
2019-03-28T09:21:12.750Z,97.70
2019-03-28T09:23:42.976Z,97.20
2019-03-28T09:26:13.159Z,97.60
2019-03-28T09:28:43.387Z,97.60
2019-03-28T09:31:19.849Z,97.10
2019-03-28T09:33:45.837Z,97.10
2019-03-28T09:36:16.077Z,97.60
2019-03-28T09:38:46.278Z,96.80
2019-03-28T09:41:16.446Z,97.20
2019-03-28T09:43:55.042Z,96.80
2019-03-28T09:46:18.491Z,96.60
2019-03-28T09:48:48.666Z,96.70
2019-03-28T09:51:18.844Z,96.90
2019-03-28T09:53:49.112Z,96.80
2019-03-28T09:56:19.275Z,97.20
2019-03-28T09:58:49.483Z,96.80
2019-03-28T10:01:19.744Z,96.80
2019-03-28T10:03:49.978Z,96.70
2019-03-28T10:06:20.154Z,96.90
2019-03-28T10:08:50.363Z,96.90
2019-03-28T10:11:20.534Z,97.00
2019-03-28T10:13:50.928Z,96.70
2019-03-28T10:16:21.127Z,96.70
2019-03-28T10:18:51.398Z,96.50
2019-03-28T10:21:21.573Z,96.80
2019-03-28T10:23:52.084Z,96.20
2019-03-28T10:26:22.502Z,96.30
2019-03-28T10:28:52.911Z,96.90
2019-03-28T10:31:23.202Z,96.50
2019-03-28T10:33:53.818Z,96.50
2019-03-28T10:36:24.015Z,96.50
2019-03-28T10:38:54.891Z,96.50
2019-03-28T10:41:25.977Z,96.50
2019-03-28T10:43:56.445Z,96.30
2019-03-28T10:46:26.742Z,96.60
2019-03-28T10:48:57.008Z,96.40
2019-03-28T10:51:27.286Z,95.70
2019-03-28T10:53:57.631Z,95.60
2019-03-28T10:56:28.118Z,96.20
2019-03-28T10:58:58.573Z,96.00
2019-03-28T11:01:46.922Z,95.90
2019-03-28T11:04:00.997Z,96.00
2019-03-28T11:06:31.204Z,96.70
2019-03-28T11:09:01.720Z,95.80
2019-03-28T11:11:33.239Z,96.30
2019-03-28T11:14:03.808Z,96.10
2019-03-28T11:16:34.067Z,96.20
2019-03-28T11:19:04.874Z,96.20
2019-03-28T11:21:35.475Z,95.70
2019-03-28T11:24:05.786Z,96.40
2019-03-28T11:26:36.265Z,96.20
2019-03-28T11:29:07.721Z,96.10
2019-03-28T11:34:10.028Z,95.90
2019-03-28T11:36:40.712Z,95.80
2019-03-28T11:39:11.443Z,96.00
2019-03-28T11:41:41.609Z,95.70
2019-03-28T11:42:35.412Z,96.00
2019-03-28T11:44:11.825Z,95.80
2019-03-28T11:46:42.067Z,95.90
2019-03-28T11:49:12.558Z,95.50
2019-03-28T11:51:43.058Z,95.40
2019-03-28T11:54:13.248Z,95.60
2019-03-28T11:56:43.624Z,95.50
2019-03-28T11:59:13.805Z,95.70
2019-03-28T12:01:43.996Z,95.60
2019-03-28T12:04:14.414Z,95.10
2019-03-28T12:06:48.783Z,95.50
2019-03-28T12:09:17.861Z,95.50
2019-03-28T12:11:48.079Z,95.30
2019-03-28T12:14:18.535Z,95.30
2019-03-28T12:16:48.709Z,95.20
2019-03-28T12:19:18.960Z,95.20
2019-03-28T12:21:49.410Z,95.00
2019-03-28T12:24:19.678Z,95.30
2019-03-28T12:26:49.869Z,94.50
2019-03-28T12:29:20.121Z,95.20
2019-03-28T12:31:50.579Z,95.20
2019-03-28T12:34:20.751Z,95.20
2019-03-28T12:36:51.172Z,94.70
2019-03-28T12:39:21.331Z,94.70
2019-03-28T12:41:51.577Z,94.70
2019-03-28T12:44:21.814Z,94.40
2019-03-28T12:46:52.319Z,94.50
2019-03-28T12:49:22.493Z,94.00
2019-03-28T12:51:52.713Z,94.10
2019-03-28T12:54:23.642Z,94.80
2019-03-28T12:56:53.913Z,93.30
2019-03-28T12:59:24.717Z,93.80
2019-03-28T13:01:55.238Z,93.50
2019-03-28T13:04:26.562Z,93.60
2019-03-28T13:06:57.883Z,92.80
2019-03-28T13:09:28.274Z,93.20
2019-03-28T13:12:00.441Z,93.20
2019-03-28T13:14:31.447Z,92.60
2019-03-28T13:17:02.086Z,93.00
2019-03-28T13:19:32.375Z,93.20
2019-03-28T13:22:02.746Z,92.60
2019-03-28T13:24:32.950Z,92.50
2019-03-28T13:27:03.564Z,92.70
2019-03-28T13:29:33.843Z,93.00
2019-03-28T13:32:04.102Z,93.20
2019-03-28T13:34:34.293Z,92.70
2019-03-28T13:37:04.701Z,92.60
2019-03-28T13:39:34.867Z,92.80
2019-03-28T13:42:05.099Z,92.60
2019-03-28T13:44:35.303Z,92.60
2019-03-28T13:47:05.467Z,92.60
2019-03-28T13:49:36.047Z,92.50
2019-03-28T13:52:06.219Z,93.00
2019-03-28T13:54:36.828Z,92.80
2019-03-28T13:57:07.100Z,92.90
2019-03-28T13:59:37.484Z,93.00
2019-03-28T14:02:07.646Z,92.60
2019-03-28T14:04:38.762Z,93.00
2019-03-28T14:07:09.192Z,93.30
2019-03-28T14:09:39.356Z,93.20
2019-03-28T14:12:09.578Z,93.50
2019-03-28T14:14:40.040Z,93.90
2019-03-28T14:17:10.663Z,94.00
2019-03-28T14:19:40.910Z,94.30
2019-03-28T14:22:11.600Z,94.70
2019-03-28T14:24:42.258Z,94.90
2019-03-28T14:27:12.547Z,94.90
2019-03-28T14:29:42.997Z,94.80
2019-03-28T14:32:13.214Z,95.00
2019-03-28T14:34:43.468Z,95.00
2019-03-28T14:37:16.876Z,95.00
2019-03-28T14:39:47.817Z,95.30
2019-03-28T14:42:19.767Z,95.20
2019-03-28T14:44:49.484Z,94.80
2019-03-28T14:47:19.674Z,95.00
2019-03-28T14:49:49.846Z,94.80
2019-03-28T14:52:20.571Z,94.90
2019-03-28T14:54:51.102Z,94.90
2019-03-28T14:57:22.135Z,95.10
2019-03-28T14:59:53.489Z,95.40
2019-03-28T15:02:23.699Z,95.50
2019-03-28T15:04:53.954Z,95.60
2019-03-28T15:07:24.172Z,95.60
2019-03-28T15:09:54.466Z,95.60
2019-03-28T15:12:24.654Z,95.60
2019-03-28T15:14:55.921Z,95.70
2019-03-28T15:17:26.390Z,95.30
2019-03-28T15:19:56.740Z,95.20
2019-03-28T15:22:26.961Z,95.20
2019-03-28T15:24:57.726Z,95.70
2019-03-28T15:27:28.366Z,95.40
2019-03-28T15:29:58.540Z,95.40
2019-03-28T15:32:29.057Z,95.50
2019-03-28T15:34:59.219Z,95.20
2019-03-28T15:37:30.606Z,95.10
2019-03-28T15:40:00.775Z,95.00
2019-03-28T15:42:31.005Z,95.00
2019-03-28T15:45:01.177Z,94.80
2019-03-28T15:47:31.819Z,94.70
2019-03-28T15:50:02.010Z,94.80
2019-03-28T15:52:33.423Z,95.20
2019-03-28T15:55:05.669Z,95.10
2019-03-28T15:57:35.828Z,95.10
2019-03-28T16:00:08.794Z,95.00
2019-03-28T16:02:38.973Z,95.10
2019-03-28T16:05:09.250Z,95.10
2019-03-28T16:07:39.643Z,95.00
2019-03-28T16:10:14.543Z,95.00
2019-03-28T16:12:43.284Z,94.80
2019-03-28T16:15:14.811Z,95.10
2019-03-28T16:17:45.122Z,95.00
2019-03-28T16:20:15.474Z,95.00
2019-03-28T16:22:45.935Z,95.10
2019-03-28T16:25:16.438Z,95.20
2019-03-28T16:27:47.486Z,95.10
2019-03-28T16:30:20.067Z,95.10
2019-03-28T16:32:51.056Z,95.20
2019-03-28T16:35:21.832Z,95.20
2019-03-28T16:37:52.008Z,95.30
2019-03-28T16:40:22.444Z,95.60
2019-03-28T16:42:52.607Z,95.60
2019-03-28T16:45:22.979Z,95.40
2019-03-28T16:47:53.979Z,95.40
2019-03-28T16:50:25.303Z,95.50
2019-03-28T16:52:55.718Z,95.60
2019-03-28T16:55:26.883Z,95.80
2019-03-28T16:57:57.834Z,95.70
2019-03-28T17:00:47.310Z,95.70
2019-03-28T17:03:17.826Z,95.70
2019-03-28T17:05:47.986Z,96.00
2019-03-28T17:08:18.997Z,95.90
2019-03-28T17:10:51.718Z,95.90
2019-03-28T17:13:22.002Z,96.00
2019-03-28T17:15:52.346Z,95.90
2019-03-28T17:18:22.654Z,96.00
2019-03-28T17:20:53.155Z,95.90
2019-03-28T17:23:24.002Z,96.00
2019-03-28T17:25:54.463Z,95.90
2019-03-28T17:28:24.806Z,95.90
2019-03-28T17:30:55.540Z,95.80
2019-03-28T17:33:25.702Z,95.80
2019-03-28T17:35:55.905Z,95.90
2019-03-28T17:38:26.080Z,96.10
2019-03-28T17:40:56.309Z,96.30
2019-03-28T17:43:26.463Z,96.50
2019-03-28T17:45:56.640Z,96.10
2019-03-28T17:48:28.518Z,96.20
2019-03-28T17:50:58.686Z,96.30
2019-03-28T17:53:28.946Z,96.30
2019-03-28T17:55:59.130Z,96.20
2019-03-28T17:58:31.667Z,96.20
2019-03-28T18:01:02.037Z,96.10
2019-03-28T18:03:32.207Z,95.70
2019-03-28T18:06:02.403Z,95.70
2019-03-28T18:08:32.608Z,95.80
2019-03-28T18:11:02.815Z,95.60
2019-03-28T18:13:33.132Z,95.70
2019-03-28T18:16:03.451Z,95.60
2019-03-28T18:18:33.663Z,95.80
2019-03-28T18:21:03.831Z,95.60
2019-03-28T18:23:34.074Z,95.70
2019-03-28T18:26:04.621Z,95.60
2019-03-28T18:28:35.719Z,95.00
2019-03-28T18:31:06.059Z,95.60
2019-03-28T18:33:36.691Z,95.50
2019-03-28T18:36:07.214Z,95.50
2019-03-28T18:38:37.717Z,95.70
2019-03-28T18:41:07.878Z,95.60
2019-03-28T18:43:38.059Z,95.60
2019-03-28T18:46:08.226Z,95.40
2019-03-28T18:48:38.698Z,95.30
2019-03-28T18:51:09.839Z,95.40
2019-03-28T18:53:40.024Z,95.30
2019-03-28T18:56:10.268Z,95.30
2019-03-28T18:58:40.521Z,95.30
2019-03-28T19:01:10.682Z,95.20
2019-03-28T19:03:40.848Z,95.20
2019-03-28T19:06:11.011Z,95.30
2019-03-28T19:08:41.598Z,94.90
2019-03-28T19:11:11.845Z,95.20
2019-03-28T19:13:42.277Z,94.90
2019-03-28T19:16:12.695Z,94.70
2019-03-28T19:18:42.859Z,94.90
2019-03-28T19:21:13.146Z,94.90
2019-03-28T19:23:43.329Z,94.80
2019-03-28T19:26:13.504Z,94.80
2019-03-28T19:28:43.690Z,94.40
2019-03-28T19:31:14.103Z,94.70
2019-03-28T19:33:44.723Z,94.20
2019-03-28T19:36:15.257Z,94.50
2019-03-28T19:38:45.905Z,94.50
2019-03-28T19:41:16.067Z,94.70
2019-03-28T19:43:46.404Z,94.50
2019-03-28T19:46:16.902Z,94.40
2019-03-28T19:48:47.074Z,94.00
2019-03-28T19:51:17.568Z,93.90
2019-03-28T19:53:47.786Z,94.00
2019-03-28T19:56:18.024Z,94.20
2019-03-28T19:58:48.874Z,94.20
2019-03-28T20:01:19.170Z,93.70
2019-03-28T20:03:52.334Z,94.00
2019-03-28T20:06:22.679Z,94.00
2019-03-28T20:08:53.631Z,94.00
2019-03-28T20:11:23.902Z,93.90
2019-03-28T20:13:54.170Z,94.10
2019-03-28T20:16:24.420Z,93.90
2019-03-28T20:18:54.906Z,93.80
2019-03-28T20:21:25.090Z,93.60
2019-03-28T20:23:56.750Z,94.00
2019-03-28T20:26:27.269Z,94.00
2019-03-28T20:28:57.765Z,93.80
2019-03-28T20:31:27.957Z,93.90
2019-03-28T20:33:58.131Z,94.10
2019-03-28T20:36:37.690Z,93.90
2019-03-28T20:39:04.201Z,93.90
2019-03-28T20:41:33.054Z,94.20
2019-03-28T20:44:03.312Z,94.00
2019-03-28T20:46:33.852Z,94.10
2019-03-28T20:49:04.017Z,93.90
2019-03-28T20:51:34.198Z,93.70
2019-03-28T20:54:07.675Z,94.30
2019-03-28T20:56:36.582Z,93.70
2019-03-28T20:59:06.750Z,93.90
2019-03-28T21:01:37.002Z,93.50
2019-03-28T21:04:07.867Z,93.50
2019-03-28T21:06:38.424Z,93.50
2019-03-28T21:09:08.964Z,93.70
2019-03-28T21:11:39.164Z,93.80
2019-03-28T21:14:09.479Z,93.90
2019-03-28T21:16:39.704Z,93.40
2019-03-28T21:19:09.926Z,93.90
2019-03-28T21:21:40.161Z,93.60
2019-03-28T21:24:10.509Z,93.80
2019-03-28T21:26:42.507Z,93.60
2019-03-28T21:29:12.983Z,93.70
2019-03-28T21:31:49.835Z,93.90
2019-03-28T21:34:15.174Z,93.60
2019-03-28T21:36:45.708Z,93.80
2019-03-28T21:39:16.228Z,93.70
2019-03-28T21:41:46.740Z,93.50
2019-03-28T21:44:17.146Z,93.40
2019-03-28T21:46:47.378Z,93.40
2019-03-28T21:49:17.556Z,93.60
2019-03-28T21:51:47.783Z,93.80
2019-03-28T21:54:17.975Z,93.80
2019-03-28T21:56:48.295Z,93.80
2019-03-28T21:59:18.543Z,93.80
2019-03-28T22:01:48.710Z,93.80
2019-03-28T22:04:18.898Z,93.80
2019-03-28T22:06:49.277Z,93.80
2019-03-28T22:09:19.571Z,93.50
2019-03-28T22:11:49.739Z,93.60
2019-03-28T22:14:20.051Z,93.60
2019-03-28T22:16:50.216Z,93.60
2019-03-28T22:19:20.390Z,93.70
2019-03-28T22:21:50.556Z,93.60
2019-03-28T22:24:20.730Z,93.50
2019-03-28T22:26:50.894Z,93.40
2019-03-28T22:29:21.396Z,93.40
2019-03-28T22:31:51.555Z,93.40
2019-03-28T22:34:22.043Z,93.50
2019-03-28T22:36:57.676Z,93.50
2019-03-28T22:39:24.325Z,93.60
2019-03-28T22:41:54.478Z,94.00
2019-03-28T22:44:24.972Z,93.60
2019-03-28T22:46:55.466Z,93.50
2019-03-28T22:49:25.633Z,93.60
2019-03-28T22:51:55.884Z,93.50
2019-03-28T22:54:26.075Z,93.90
2019-03-28T22:56:57.215Z,93.40
2019-03-28T22:59:27.409Z,93.40
2019-03-28T23:01:58.137Z,93.50
2019-03-28T23:04:28.310Z,93.40
2019-03-28T23:07:10.424Z,93.30
2019-03-28T23:09:31.681Z,93.40
2019-03-28T23:12:01.844Z,93.30
2019-03-28T23:14:32.288Z,93.10
2019-03-28T23:17:02.542Z,93.20
2019-03-28T23:19:33.260Z,93.20
2019-03-28T23:22:03.752Z,93.40
2019-03-28T23:24:33.952Z,93.40
2019-03-28T23:27:04.500Z,93.40
2019-03-28T23:29:34.678Z,93.40
2019-03-28T23:32:05.019Z,93.20
2019-03-28T23:34:35.225Z,93.30
2019-03-28T23:37:05.525Z,93.20
2019-03-28T23:39:35.991Z,93.30
2019-03-28T23:42:06.162Z,93.30
2019-03-28T23:44:36.487Z,93.30
2019-03-28T23:47:06.663Z,93.30
2019-03-28T23:49:38.605Z,93.30
2019-03-28T23:52:08.767Z,93.30
2019-03-28T23:54:38.934Z,93.30
2019-03-28T23:57:11.043Z,93.30
2019-03-28T23:59:42.083Z,93.40
